| time (UTC) | temp C | wind direction | speed KPH | gust KPH | rain 1hr cm | rain 24hr cm | rain mn cm | humidity % | barometer mb |
| 20260505114340 | 2 | 353 | 0.0 | 1.6 | 0.00 | 0.00 | 0.00 | 72 | 1006.1 |
| 20260505113836 | 2 | 340 | 3.2 | 3.2 | 0.00 | 0.00 | 0.00 | 73 | 1005.9 |
| 20260505113333 | 2 | 339 | 3.2 | 3.2 | 0.00 | 0.00 | 0.00 | 73 | 1005.9 |
| 20260505112828 | 2 | 343 | 0.0 | 1.6 | 0.00 | 0.00 | 0.00 | 75 | 1005.7 |
| 20260505112326 | 2 | 335 | 4.8 | 8.0 | 0.00 | 0.00 | 0.00 | 72 | 1005.7 |
| 20260505111822 | 2 | 349 | 1.6 | 1.6 | 0.00 | 0.00 | 0.00 | 72 | 1005.7 |
| 20260505111317 | 2 | 355 | 1.6 | 1.6 | 0.00 | 0.00 | 0.00 | 72 | 1005.5 |
| 20260505110814 | 2 | 347 | 1.6 | 3.2 | 0.00 | 0.00 | 0.00 | 72 | 1005.7 |
| 20260505110311 | 2 | 346 | 1.6 | 1.6 | 0.00 | 0.00 | 0.00 | 72 | 1005.4 |
| 20260505101746 | 3 | 332 | 1.6 | 3.2 | 0.00 | 0.00 | 0.00 | 74 | 1005.3 |
| 20260505101241 | 3 | 339 | 1.6 | 1.6 | 0.00 | 0.00 | 0.00 | 77 | 1005.3 |
| 20260505100738 | 2 | 342 | 1.6 | 1.6 | 0.00 | 0.00 | 0.00 | 75 | 1005.0 |
| 20260505100234 | 2 | 344 | 0.0 | 1.6 | 0.00 | 0.00 | 0.00 | 75 | 1004.9 |
| 20260505095730 | 2 | 345 | 0.0 | 1.6 | 0.00 | 0.00 | 0.00 | 75 | 1005.1 |
| 20260505095228 | 2 | 344 | 1.6 | 1.6 | 0.00 | 0.00 | 0.00 | 78 | 1004.8 |
| 20260505094723 | 2 | 352 | 0.0 | 0.0 | 0.00 | 0.00 | 0.00 | 74 | 1004.9 |
| 20260505094220 | 2 | 352 | 0.0 | 1.6 | 0.00 | 0.00 | 0.00 | 74 | 1005.0 |
| 20260505093716 | 2 | 355 | 0.0 | 1.6 | 0.00 | 0.00 | 0.00 | 73 | 1004.9 |
| 20260505093214 | 2 | 355 | 0.0 | 0.0 | 0.00 | 0.00 | 0.00 | 73 | 1004.7 |
| 20260505092710 | 2 | 355 | 0.0 | 0.0 | 0.00 | 0.00 | 0.00 | 73 | 1004.7 |
| 20260505092210 | 2 | 355 | 0.0 | 0.0 | 0.00 | 0.00 | 0.00 | 73 | 1004.5 |
| 20260505091706 | 2 | 355 | 0.0 | 0.0 | 0.00 | 0.00 | 0.00 | 73 | 1004.7 |
| 20260505091204 | 2 | 354 | 0.0 | 0.0 | 0.00 | 0.00 | 0.00 | 73 | 1004.7 |
| 20260505090701 | 2 | 354 | 0.0 | 0.0 | 0.00 | 0.00 | 0.00 | 72 | 1004.7 |
| 20260505090159 | 2 | 354 | 0.0 | 0.0 | 0.00 | 0.00 | 0.00 | 72 | 1004.5 |
| 20260505085657 | 2 | 354 | 0.0 | 0.0 | 0.00 | 0.00 | 0.00 | 73 | 1004.5 |
| 20260505085155 | 2 | 354 | 0.0 | 1.6 | 0.00 | 0.00 | 0.00 | 72 | 1004.2 |
| 20260505084652 | 2 | 354 | 0.0 | 0.0 | 0.00 | 0.00 | 0.00 | 72 | 1004.2 |
| 20260505084151 | 2 | 354 | 0.0 | 0.0 | 0.00 | 0.00 | 0.00 | 73 | 1004.2 |
| 20260505083647 | 2 | 354 | 1.6 | 1.6 | 0.00 | 0.00 | 0.00 | 73 | 1004.3 |
| 20260505083144 | 2 | 354 | 0.0 | 0.0 | 0.00 | 0.00 | 0.00 | 72 | 1004.2 |
| 20260505082640 | 2 | 353 | 1.6 | 1.6 | 0.00 | 0.00 | 0.00 | 71 | 1004.5 |
| 20260505082137 | 2 | 355 | 0.0 | 1.6 | 0.00 | 0.00 | 0.00 | 71 | 1004.3 |
| 20260505081633 | 2 | 348 | 1.6 | 1.6 | 0.00 | 0.00 | 0.00 | 71 | 1004.3 |
| 20260505081131 | 2 | 353 | 0.0 | 0.0 | 0.00 | 0.00 | 0.00 | 71 | 1004.3 |
| 20260505080627 | 2 | 349 | 0.0 | 1.6 | 0.00 | 0.00 | 0.00 | 71 | 1004.2 |
| 20260505080123 | 2 | 351 | 1.6 | 1.6 | 0.00 | 0.00 | 0.00 | 70 | 1004.2 |
| 20260505075620 | 2 | 357 | 0.0 | 0.0 | 0.00 | 0.00 | 0.00 | 70 | 1004.3 |
| 20260505075116 | 2 | 346 | 0.0 | 0.0 | 0.00 | 0.00 | 0.00 | 69 | 1004.5 |
| 20260505074613 | 2 | 354 | 0.0 | 0.0 | 0.00 | 0.00 | 0.00 | 69 | 1004.3 |
| 20260505074110 | 2 | 351 | 0.0 | 0.0 | 0.00 | 0.00 | 0.00 | 69 | 1004.1 |
| 20260505073608 | 2 | 349 | 0.0 | 0.0 | 0.00 | 0.00 | 0.00 | 69 | 1004.5 |
| 20260505073106 | 2 | 349 | 0.0 | 1.6 | 0.00 | 0.00 | 0.00 | 68 | 1004.3 |
| 20260505072601 | 2 | 349 | 0.0 | 0.0 | 0.00 | 0.00 | 0.00 | 68 | 1004.2 |
| 20260505072058 | 2 | 348 | 0.0 | 0.0 | 0.00 | 0.00 | 0.00 | 67 | 1004.3 |
| 20260505071554 | 2 | 349 | 1.6 | 1.6 | 0.00 | 0.00 | 0.00 | 66 | 1004.1 |
| 20260505071052 | 2 | 355 | 1.6 | 1.6 | 0.00 | 0.00 | 0.00 | 66 | 1004.2 |
| 20260505070549 | 3 | 349 | 0.0 | 0.0 | 0.00 | 0.00 | 0.00 | 65 | 1004.2 |
| 20260505070045 | 3 | 351 | 0.0 | 1.6 | 0.00 | 0.00 | 0.00 | 65 | 1004.5 |
| 20260505065541 | 3 | 345 | 1.6 | 3.2 | 0.00 | 0.00 | 0.00 | 64 | 1004.3 |
| 20260505065038 | 3 | 350 | 0.0 | 1.6 | 0.00 | 0.00 | 0.00 | 64 | 1004.2 |
| 20260505064534 | 3 | 349 | 0.0 | 0.0 | 0.00 | 0.00 | 0.00 | 64 | 1004.5 |
| 20260505064033 | 3 | 343 | 1.6 | 1.6 | 0.00 | 0.00 | 0.00 | 63 | 1004.2 |
| 20260505063530 | 3 | 352 | 0.0 | 0.0 | 0.00 | 0.00 | 0.00 | 64 | 1004.5 |
| 20260505063025 | 3 | 347 | 0.0 | 1.6 | 0.00 | 0.00 | 0.00 | 64 | 1004.2 |
| 20260505062523 | 3 | 348 | 1.6 | 1.6 | 0.00 | 0.00 | 0.00 | 63 | 1004.5 |
| 20260505062020 | 3 | 350 | 3.2 | 3.2 | 0.00 | 0.00 | 0.00 | 66 | 1004.5 |
| 20260505061517 | 3 | 343 | 0.0 | 0.0 | 0.00 | 0.00 | 0.00 | 65 | 1004.3 |
| 20260505061015 | 3 | 351 | 0.0 | 0.0 | 0.00 | 0.00 | 0.00 | 62 | 1004.1 |
| 20260505060512 | 3 | 348 | 1.6 | 3.2 | 0.00 | 0.00 | 0.00 | 62 | 1004.2 |
| 20260505060009 | 3 | 356 | 0.0 | 0.0 | 0.00 | 0.00 | 0.00 | 66 | 1004.2 |
| 20260505055504 | 3 | 355 | 1.6 | 1.6 | 0.00 | 0.00 | 0.00 | 62 | 1004.1 |
| 20260505055001 | 3 | 344 | 1.6 | 1.6 | 0.00 | 0.00 | 0.00 | 61 | 1004.2 |
| 20260505054458 | 4 | 347 | 1.6 | 1.6 | 0.00 | 0.00 | 0.00 | 63 | 1004.0 |
| 20260505053956 | 4 | 346 | 0.0 | 1.6 | 0.00 | 0.00 | 0.00 | 60 | 1003.8 |
| 20260505053453 | 4 | 317 | 3.2 | 3.2 | 0.00 | 0.00 | 0.00 | 60 | 1003.9 |
| 20260505052950 | 4 | 354 | 0.0 | 0.0 | 0.00 | 0.00 | 0.00 | 60 | 1004.0 |
| 20260505052447 | 4 | 353 | 1.6 | 1.6 | 0.00 | 0.00 | 0.00 | 59 | 1003.9 |
| 20260505051944 | 4 | 332 | 3.2 | 3.2 | 0.00 | 0.00 | 0.00 | 58 | 1003.6 |
| 20260505051441 | 4 | 341 | 1.6 | 1.6 | 0.00 | 0.00 | 0.00 | 60 | 1003.7 |
| 20260505050939 | 4 | 346 | 0.0 | 1.6 | 0.00 | 0.00 | 0.00 | 58 | 1003.6 |
| 20260505050437 | 4 | 346 | 1.6 | 1.6 | 0.00 | 0.00 | 0.00 | 57 | 1003.4 |
| 20260505041405 | 5 | 342 | 1.6 | 1.6 | 0.00 | 0.00 | 0.00 | 54 | 1003.3 |
| 20260505040902 | 5 | 1 | 3.2 | 3.2 | 0.00 | 0.00 | 0.00 | 54 | 1003.2 |
| 20260505040359 | 5 | 7 | 0.0 | 1.6 | 0.00 | 0.00 | 0.00 | 57 | 1003.3 |
| 20260505035856 | 5 | 335 | 3.2 | 3.2 | 0.00 | 0.00 | 0.00 | 57 | 1003.2 |
| 20260505035352 | 6 | 349 | 3.2 | 4.8 | 0.00 | 0.00 | 0.00 | 58 | 1003.0 |
| 20260505034849 | 6 | 329 | 0.0 | 3.2 | 0.00 | 0.00 | 0.00 | 59 | 1003.1 |
| 20260505034346 | 6 | 351 | 1.6 | 1.6 | 0.00 | 0.00 | 0.00 | 58 | 1003.0 |
| 20260505033843 | 6 | 342 | 1.6 | 3.2 | 0.00 | 0.00 | 0.00 | 58 | 1003.2 |
| 20260505033339 | 6 | 304 | 4.8 | 8.0 | 0.00 | 0.00 | 0.00 | 58 | 1003.0 |
| 20260505032838 | 6 | 309 | 4.8 | 4.8 | 0.00 | 0.00 | 0.00 | 56 | 1003.1 |
| 20260505032334 | 6 | 306 | 4.8 | 8.0 | 0.00 | 0.00 | 0.00 | 60 | 1003.1 |
| 20260505031831 | 6 | 341 | 4.8 | 9.7 | 0.00 | 0.00 | 0.00 | 60 | 1003.2 |
| 20260505031327 | 6 | 349 | 4.8 | 8.0 | 0.00 | 0.00 | 0.00 | 59 | 1003.2 |
| 20260505030825 | 6 | 358 | 3.2 | 4.8 | 0.00 | 0.00 | 0.00 | 62 | 1002.9 |
| 20260505030321 | 6 | 344 | 1.6 | 1.6 | 0.00 | 0.00 | 0.00 | 66 | 1003.1 |
| 20260505025816 | 6 | 344 | 0.0 | 1.6 | 0.00 | 0.00 | 0.00 | 63 | 1002.8 |
| 20260505025315 | 6 | 352 | 1.6 | 1.6 | 0.00 | 0.00 | 0.00 | 63 | 1002.9 |
| 20260505024813 | 6 | 343 | 0.0 | 1.6 | 0.00 | 0.00 | 0.00 | 63 | 1003.0 |
| 20260505024310 | 6 | 348 | 4.8 | 4.8 | 0.00 | 0.00 | 0.00 | 64 | 1002.7 |
| 20260505023807 | 6 | 340 | 1.6 | 3.2 | 0.00 | 0.00 | 0.00 | 63 | 1002.9 |
| 20260505023304 | 6 | 4 | 3.2 | 4.8 | 0.00 | 0.00 | 0.00 | 62 | 1002.9 |
| 20260505022801 | 6 | 310 | 3.2 | 3.2 | 0.00 | 0.00 | 0.00 | 62 | 1002.6 |
| 20260505022258 | 6 | 349 | 1.6 | 1.6 | 0.00 | 0.00 | 0.00 | 61 | 1002.7 |
| 20260505021755 | 6 | 324 | 3.2 | 3.2 | 0.00 | 0.00 | 0.00 | 60 | 1002.2 |
| 20260505021252 | 7 | 348 | 0.0 | 1.6 | 0.00 | 0.00 | 0.00 | 60 | 1002.5 |
| 20260505020748 | 7 | 0 | 3.2 | 4.8 | 0.00 | 0.00 | 0.00 | 58 | 1002.4 |
| 20260505020243 | 7 | 343 | 1.6 | 3.2 | 0.00 | 0.00 | 0.00 | 60 | 1002.4 |
| 20260505015740 | 7 | 346 | 4.8 | 4.8 | 0.00 | 0.00 | 0.00 | 57 | 1001.9 |
| 20260505015237 | 7 | 332 | 3.2 | 4.8 | 0.00 | 0.00 | 0.00 | 58 | 1002.1 |
| 20260505014734 | 7 | 344 | 0.0 | 1.6 | 0.00 | 0.00 | 0.00 | 56 | 1001.7 |
| 20260505014232 | 7 | 345 | 1.6 | 1.6 | 0.00 | 0.00 | 0.00 | 57 | 1001.8 |
| 20260505013728 | 7 | 352 | 3.2 | 3.2 | 0.00 | 0.00 | 0.00 | 55 | 1001.8 |
| 20260505013225 | 7 | 351 | 3.2 | 3.2 | 0.00 | 0.00 | 0.00 | 57 | 1001.4 |
| 20260505012724 | 7 | 347 | 1.6 | 1.6 | 0.00 | 0.00 | 0.00 | 55 | 1001.3 |
| 20260505012221 | 7 | 2 | 3.2 | 3.2 | 0.00 | 0.00 | 0.00 | 55 | 1001.4 |
| 20260505011716 | 8 | 349 | 1.6 | 1.6 | 0.00 | 0.00 | 0.00 | 55 | 1001.2 |
| 20260505011214 | 8 | 356 | 0.0 | 0.0 | 0.00 | 0.00 | 0.00 | 54 | 1001.1 |
| 20260505010709 | 8 | 344 | 1.6 | 1.6 | 0.00 | 0.00 | 0.00 | 54 | 1001.0 |
| 20260505010206 | 8 | 346 | 1.6 | 3.2 | 0.00 | 0.00 | 0.00 | 56 | 1001.1 |
| 20260505005702 | 8 | 344 | 1.6 | 1.6 | 0.00 | 0.00 | 0.00 | 55 | 1001.1 |
| 20260505005159 | 8 | 349 | 0.0 | 1.6 | 0.00 | 0.00 | 0.00 | 54 | 1000.8 |
| 20260505004656 | 8 | 9 | 4.8 | 4.8 | 0.00 | 0.00 | 0.00 | 53 | 1000.8 |
| 20260505004153 | 9 | 3 | 4.8 | 4.8 | 0.00 | 0.00 | 0.00 | 55 | 1000.9 |
| 20260505003650 | 9 | 352 | 1.6 | 1.6 | 0.00 | 0.00 | 0.00 | 54 | 1000.6 |
| 20260505003147 | 9 | 348 | 0.0 | 1.6 | 0.00 | 0.00 | 0.00 | 56 | 1000.5 |
| 20260505002643 | 9 | 349 | 1.6 | 1.6 | 0.00 | 0.00 | 0.00 | 54 | 1000.7 |
| 20260505002142 | 10 | 336 | 1.6 | 3.2 | 0.00 | 0.00 | 0.00 | 53 | 1000.6 |
| 20260505001638 | 10 | 356 | 1.6 | 1.6 | 0.00 | 0.00 | 0.00 | 55 | 1000.4 |
| 20260505001136 | 10 | 1 | 1.6 | 3.2 | 0.00 | 0.00 | 0.00 | 53 | 1000.5 |
| 20260505000633 | 10 | 4 | 4.8 | 4.8 | 0.00 | 0.00 | 0.00 | 51 | 1000.0 |
| 20260505000131 | 10 | 7 | 4.8 | 8.0 | 0.00 | 0.00 | 0.00 | 51 | 1000.0 |
| 20260504235627 | 11 | 335 | 4.8 | 8.0 | 0.00 | 0.00 | 0.00 | 51 | 999.7 |
| 20260504235124 | 11 | 336 | 4.8 | 9.7 | 0.00 | 0.00 | 0.00 | 54 | 999.7 |
| 20260504234621 | 11 | 356 | 4.8 | 4.8 | 0.00 | 0.00 | 0.00 | 51 | 999.5 |
| 20260504234118 | 11 | 0 | 6.4 | 9.7 | 0.00 | 0.00 | 0.00 | 50 | 999.6 |
| 20260504233614 | 11 | 345 | 1.6 | 1.6 | 0.00 | 0.00 | 0.00 | 50 | 999.6 |
| 20260504233110 | 12 | 314 | 3.2 | 3.2 | 0.00 | 0.00 | 0.00 | 49 | 999.4 |
| 20260504232607 | 12 | 352 | 1.6 | 3.2 | 0.00 | 0.00 | 0.00 | 49 | 999.3 |
| 20260504232105 | 12 | 345 | 1.6 | 1.6 | 0.00 | 0.00 | 0.00 | 48 | 999.2 |
| 20260504231601 | 12 | 341 | 4.8 | 8.0 | 0.00 | 0.00 | 0.00 | 48 | 999.3 |
| 20260504231057 | 12 | 355 | 3.2 | 3.2 | 0.00 | 0.00 | 0.00 | 48 | 999.2 |
| 20260504230553 | 12 | 342 | 1.6 | 1.6 | 0.00 | 0.00 | 0.00 | 47 | 999.3 |
| 20260504230053 | 12 | 344 | 1.6 | 1.6 | 0.00 | 0.00 | 0.00 | 46 | 998.9 |
| 20260504225549 | 13 | 329 | 3.2 | 4.8 | 0.00 | 0.00 | 0.00 | 46 | 999.0 |
| 20260504225046 | 13 | 5 | 3.2 | 4.8 | 0.00 | 0.00 | 0.00 | 44 | 998.9 |
| 20260504224543 | 13 | 336 | 3.2 | 3.2 | 0.00 | 0.00 | 0.00 | 43 | 998.6 |
| 20260504224040 | 13 | 351 | 4.8 | 8.0 | 0.00 | 0.00 | 0.00 | 45 | 998.7 |
| 20260504223537 | 13 | 345 | 1.6 | 1.6 | 0.00 | 0.00 | 0.00 | 45 | 998.5 |
| 20260504223033 | 13 | 339 | 1.6 | 3.2 | 0.00 | 0.00 | 0.00 | 47 | 998.4 |
| 20260504222530 | 14 | 338 | 4.8 | 4.8 | 0.00 | 0.00 | 0.00 | 44 | 998.1 |
| 20260504222027 | 14 | 359 | 3.2 | 3.2 | 0.00 | 0.00 | 0.00 | 44 | 997.9 |
| 20260504221524 | 14 | 339 | 3.2 | 3.2 | 0.00 | 0.00 | 0.00 | 45 | 998.2 |
| 20260504221021 | 15 | 303 | 1.6 | 3.2 | 0.00 | 0.00 | 0.00 | 46 | 997.6 |
| 20260504220518 | 15 | 353 | 0.0 | 1.6 | 0.00 | 0.00 | 0.00 | 45 | 997.7 |
| 20260504220015 | 15 | 355 | 1.6 | 1.6 | 0.00 | 0.00 | 0.00 | 43 | 997.5 |
| 20260504215511 | 15 | 357 | 0.0 | 1.6 | 0.00 | 0.00 | 0.00 | 44 | 997.4 |
| 20260504215009 | 14 | 349 | 3.2 | 3.2 | 0.00 | 0.00 | 0.00 | 43 | 997.6 |
| 20260504214504 | 14 | 275 | 4.8 | 8.0 | 0.00 | 0.00 | 0.00 | 49 | 997.4 |
| 20260504214001 | 14 | 313 | 4.8 | 4.8 | 0.00 | 0.00 | 0.00 | 49 | 997.3 |
| 20260504213457 | 14 | 345 | 1.6 | 3.2 | 0.00 | 0.00 | 0.00 | 50 | 997.3 |
| 20260504212955 | 15 | 324 | 3.2 | 4.8 | 0.00 | 0.00 | 0.00 | 50 | 997.4 |
| 20260504212450 | 14 | 254 | 8.0 | 11.3 | 0.00 | 0.00 | 0.00 | 49 | 997.2 |
| 20260504211948 | 14 | 355 | 4.8 | 4.8 | 0.00 | 0.00 | 0.00 | 49 | 997.0 |
| 20260504211444 | 15 | 311 | 8.0 | 12.9 | 0.00 | 0.00 | 0.00 | 49 | 997.2 |
| 20260504210942 | 15 | 258 | 8.0 | 9.7 | 0.00 | 0.00 | 0.00 | 48 | 997.3 |
| 20260504210438 | 15 | 318 | 4.8 | 9.7 | 0.00 | 0.00 | 0.00 | 47 | 997.0 |
| 20260504205935 | 14 | 252 | 16.1 | 17.7 | 0.00 | 0.00 | 0.00 | 46 | 996.9 |
| 20260504205433 | 15 | 243 | 14.5 | 17.7 | 0.00 | 0.00 | 0.00 | 47 | 996.7 |
| 20260504204931 | 15 | 254 | 14.5 | 17.7 | 0.00 | 0.00 | 0.00 | 46 | 996.9 |
| 20260504204429 | 15 | 268 | 8.0 | 9.7 | 0.00 | 0.00 | 0.00 | 50 | 996.9 |
| 20260504203928 | 15 | 325 | 4.8 | 4.8 | 0.00 | 0.00 | 0.00 | 49 | 996.8 |
| 20260504203425 | 15 | 271 | 8.0 | 9.7 | 0.00 | 0.00 | 0.00 | 47 | 996.7 |
| 20260504202921 | 15 | 285 | 9.7 | 11.3 | 0.00 | 0.00 | 0.00 | 48 | 996.6 |
| 20260504202418 | 15 | 273 | 9.7 | 11.3 | 0.00 | 0.00 | 0.00 | 51 | 996.7 |
| 20260504201915 | 15 | 266 | 6.4 | 9.7 | 0.00 | 0.00 | 0.00 | 46 | 996.6 |
| 20260504201412 | 15 | 348 | 6.4 | 12.9 | 0.00 | 0.00 | 0.00 | 48 | 996.9 |
| 20260504200909 | 15 | 353 | 4.8 | 4.8 | 0.00 | 0.00 | 0.00 | 48 | 996.5 |
| 20260504200406 | 15 | 332 | 4.8 | 4.8 | 0.00 | 0.00 | 0.00 | 51 | 996.5 |
| 20260504195903 | 15 | 344 | 4.8 | 4.8 | 0.00 | 0.00 | 0.00 | 50 | 996.9 |
| 20260504195358 | 15 | 295 | 4.8 | 4.8 | 0.00 | 0.00 | 0.00 | 49 | 996.6 |
| 20260504194855 | 15 | 232 | 11.3 | 14.5 | 0.00 | 0.00 | 0.00 | 48 | 996.7 |
| 20260504194351 | 15 | 305 | 6.4 | 8.0 | 0.00 | 0.00 | 0.00 | 50 | 996.3 |
| 20260504193847 | 15 | 272 | 8.0 | 9.7 | 0.00 | 0.00 | 0.00 | 49 | 996.5 |
| 20260504193344 | 15 | 311 | 4.8 | 8.0 | 0.00 | 0.00 | 0.00 | 50 | 996.4 |
| 20260504192843 | 15 | 353 | 3.2 | 4.8 | 0.00 | 0.00 | 0.00 | 51 | 996.6 |
| 20260504192341 | 15 | 4 | 3.2 | 3.2 | 0.00 | 0.00 | 0.00 | 51 | 996.4 |
| 20260504191839 | 15 | 310 | 8.0 | 9.7 | 0.00 | 0.00 | 0.00 | 50 | 996.5 |
| 20260504191337 | 15 | 308 | 4.8 | 8.0 | 0.00 | 0.00 | 0.00 | 52 | 996.3 |
| 20260504190832 | 15 | 321 | 4.8 | 8.0 | 0.00 | 0.00 | 0.00 | 49 | 996.2 |
| 20260504190328 | 15 | 235 | 9.7 | 12.9 | 0.00 | 0.00 | 0.00 | 49 | 996.1 |
| 20260504185825 | 15 | 329 | 3.2 | 4.8 | 0.00 | 0.00 | 0.00 | 45 | 996.1 |
| 20260504185322 | 15 | 249 | 8.0 | 11.3 | 0.00 | 0.00 | 0.00 | 48 | 996.1 |
| 20260504184818 | 15 | 349 | 4.8 | 4.8 | 0.00 | 0.00 | 0.00 | 47 | 995.8 |
| 20260504184314 | 15 | 352 | 1.6 | 1.6 | 0.00 | 0.00 | 0.00 | 46 | 996.3 |
| 20260504183809 | 15 | 231 | 4.8 | 11.3 | 0.00 | 0.00 | 0.00 | 47 | 996.3 |
| 20260504183307 | 15 | 338 | 3.2 | 3.2 | 0.00 | 0.00 | 0.00 | 47 | 996.1 |
| 20260504182805 | 15 | 328 | 4.8 | 8.0 | 0.00 | 0.00 | 0.00 | 49 | 996.2 |
| 20260504182304 | 15 | 306 | 11.3 | 14.5 | 0.00 | 0.00 | 0.00 | 48 | 996.0 |
| 20260504181759 | 16 | 343 | 3.2 | 3.2 | 0.00 | 0.00 | 0.00 | 45 | 996.2 |
| 20260504181256 | 15 | 336 | 3.2 | 3.2 | 0.00 | 0.00 | 0.00 | 43 | 995.7 |
| 20260504180755 | 15 | 223 | 14.5 | 16.1 | 0.00 | 0.00 | 0.00 | 44 | 995.8 |
| 20260504180253 | 16 | 212 | 11.3 | 14.5 | 0.00 | 0.00 | 0.00 | 42 | 996.0 |
| 20260504175751 | 16 | 263 | 8.0 | 12.9 | 0.00 | 0.00 | 0.00 | 45 | 996.1 |
| 20260504175247 | 16 | 239 | 11.3 | 12.9 | 0.00 | 0.00 | 0.00 | 46 | 996.2 |
| 20260504174745 | 16 | 257 | 14.5 | 20.9 | 0.00 | 0.00 | 0.00 | 47 | 996.0 |
| 20260504174243 | 16 | 252 | 6.4 | 8.0 | 0.00 | 0.00 | 0.00 | 46 | 995.7 |
| 20260504173739 | 16 | 229 | 6.4 | 9.7 | 0.00 | 0.00 | 0.00 | 45 | 995.6 |
| 20260504173236 | 17 | 259 | 11.3 | 14.5 | 0.00 | 0.00 | 0.00 | 47 | 995.6 |
| 20260504172733 | 16 | 316 | 3.2 | 3.2 | 0.00 | 0.00 | 0.00 | 51 | 995.3 |
| 20260504172230 | 16 | 263 | 8.0 | 12.9 | 0.00 | 0.00 | 0.00 | 52 | 995.3 |
| 20260504171726 | 15 | 255 | 14.5 | 16.1 | 0.00 | 0.00 | 0.00 | 51 | 995.5 |
| 20260504171223 | 15 | 337 | 6.4 | 9.7 | 0.00 | 0.00 | 0.00 | 54 | 995.5 |
| 20260504170720 | 15 | 321 | 1.6 | 3.2 | 0.00 | 0.00 | 0.00 | 58 | 995.6 |
| 20260504170217 | 15 | 280 | 4.8 | 4.8 | 0.00 | 0.00 | 0.00 | 59 | 995.4 |
| 20260504160136 | 16 | 345 | 8.0 | 11.3 | 0.00 | 0.00 | 0.00 | 55 | 995.2 |
| 20260504151103 | 15 | 331 | 4.8 | 4.8 | 0.00 | 0.00 | 0.00 | 55 | 994.8 |
| 20260504150601 | 15 | 258 | 9.7 | 12.9 | 0.00 | 0.00 | 0.00 | 53 | 995.1 |
| 20260504141026 | 15 | 304 | 11.3 | 14.5 | 0.00 | 0.00 | 0.00 | 50 | 994.4 |
| 20260504140523 | 15 | 235 | 14.5 | 17.7 | 0.00 | 0.00 | 0.00 | 51 | 994.3 |
| 20260504130447 | 13 | 269 | 11.3 | 14.5 | 0.00 | 0.00 | 0.00 | 52 | 994.4 |